Time;durP1;ratioP1;P1;durP2;ratioP2;P2;SDS_P1;SDS_P2;PMS_P1;PMS_P2;Temp;Humidity;BMP_temperature;BMP_pressure;BME280_temperature;BME280_humidity;BME280_pressure;Samples;Min_cycle;Max_cycle;Signal;HPM_P1;HPM_P2
2021/12/16 00:03:41;;;;;;;;;;;;;;;;;;5117319;27;19931;-91
2021/12/16 00:06:48;;;;;;;;;;;;;;;;;;5116682;27;19923;-91
2021/12/16 00:09:04;;;;;;;;;;;;;;;;;;5120099;27;19966;-93
2021/12/16 00:20:13;;;;;;;;;;;;;;;;;;5137521;27;19987;-93
2021/12/16 00:33:18;;;;;;;;;;;;;;;;;;5116660;27;19969;-92
2021/12/16 00:35:43;;;;;;;;;;;;;;;;;;5107680;27;19932;-91
2021/12/16 00:38:09;;;;;;;;;;;;;;;;;;5115785;27;19927;-92
2021/12/16 00:40:40;;;;;;;;;;;;;;;;;;5104966;27;19931;-92
2021/12/16 00:43:24;;;;;;;;;;;;;;;;;;5099277;27;20380;-91
2021/12/16 00:54:12;;;;;;;;;;;;;;;;;;5054580;28;19925;-92
2021/12/16 00:56:38;;;;;;;;;;;;;;;;;;5057484;28;19931;-92
2021/12/16 00:59:06;;;;;;;;;;;;;;;;;;5057795;28;19924;-91
2021/12/16 01:07:46;;;;;;;;;;;;;;;;;;5069525;28;20015;-92
2021/12/16 01:33:41;;;;;;;;;;;;;;;;;;5074033;28;19928;-91
2021/12/16 01:34:23;;;;;;;;;;;;;;;;;;5118358;27;19924;-91
2021/12/16 01:37:14;;;;;;;;;;;;;;;;;;5097118;28;20336;-91
2021/12/16 01:57:25;;;;;;;;;;;;;;;;;;5129675;27;19976;-91
2021/12/16 02:00:05;;;;;;;;;;;;;;;;;;5099757;28;20369;-92
2021/12/16 02:02:45;;;;;;;;;;;;;;;;;;5094543;28;19971;-91
2021/12/16 02:08:21;;;;;;;;;;;;;;;;;;5070180;28;20007;-90
2021/12/16 02:10:58;;;;;;;;;;;;;;;;;;5072227;28;19931;-91
2021/12/16 02:27:12;;;;;;;;;;;;;;;;;;5054325;28;19925;-92
2021/12/16 02:27:35;;;;;;;;;;;;;;;;;;5068503;28;20035;-91
2021/12/16 02:32:52;;;;;;;;;;;;;;;;;;5072341;28;20034;-92
2021/12/16 02:35:34;;;;;;;;;;;;;;;;;;5072096;28;19924;-90
2021/12/16 02:38:02;;;;;;;;;;;;;;;;;;5072225;28;19928;-91
2021/12/16 02:40:28;;;;;;;;;;;;;;;;;;5072083;28;19924;-91
2021/12/16 02:42:59;;;;;;;;;;;;;;;;;;5084635;28;19923;-91
2021/12/16 02:50:54;;;;;;;;;;;;;;;;;;5119918;27;20323;-92
2021/12/16 02:53:20;;;;;;;;;;;;;;;;;;5096229;27;20010;-91
2021/12/16 02:55:46;;;;;;;;;;;;;;;;;;5113961;27;19930;-92
2021/12/16 02:58:12;;;;;;;;;;;;;;;;;;5108939;28;20369;-91
2021/12/16 03:00:38;;;;;;;;;;;;;;;;;;5096003;28;19927;-91
2021/12/16 03:03:04;;;;;;;;;;;;;;;;;;5095650;27;19948;-91
2021/12/16 03:05:30;;;;;;;;;;;;;;;;;;5109406;28;19931;-92
2021/12/16 03:07:56;;;;;;;;;;;;;;;;;;5096226;27;20388;-91
2021/12/16 03:20:44;;;;;;;;;;;;;;;;;;5126851;27;19992;-91
2021/12/16 03:34:38;;;;;;;;;;;;;;;;;;5121308;27;20483;-91
2021/12/16 03:36:50;;;;;;;;;;;;;;;;;;5121329;27;19992;-92
2021/12/16 03:39:16;;;;;;;;;;;;;;;;;;5100795;28;19930;-91
2021/12/16 03:41:42;;;;;;;;;;;;;;;;;;5104061;28;19924;-91
2021/12/16 03:44:10;;;;;;;;;;;;;;;;;;5110762;28;20381;-91
2021/12/16 03:46:37;;;;;;;;;;;;;;;;;;5106335;27;22070;-93
2021/12/16 03:49:03;;;;;;;;;;;;;;;;;;5099673;28;20022;-91
2021/12/16 03:51:29;;;;;;;;;;;;;;;;;;5105324;28;19928;-92
2021/12/16 03:53:55;;;;;;;;;;;;;;;;;;5094526;28;20362;-92
2021/12/16 03:56:23;;;;;;;;;;;;;;;;;;5095693;28;19928;-92
2021/12/16 03:58:49;;;;;;;;;;;;;;;;;;5094244;28;19976;-92
2021/12/16 04:01:15;;;;;;;;;;;;;;;;;;5092307;28;19923;-91
2021/12/16 04:03:40;;;;;;;;;;;;;;;;;;5092370;28;19993;-92
2021/12/16 04:06:06;;;;;;;;;;;;;;;;;;5092646;28;19924;-91
2021/12/16 04:08:32;;;;;;;;;;;;;;;;;;5099457;28;19935;-90
2021/12/16 04:11:06;;;;;;;;;;;;;;;;;;5102444;28;20057;-91
2021/12/16 04:13:36;;;;;;;;;;;;;;;;;;5109730;28;19924;-92
2021/12/16 04:16:02;;;;;;;;;;;;;;;;;;5093785;28;19924;-91
2021/12/16 04:18:28;;;;;;;;;;;;;;;;;;5092577;28;19931;-93
2021/12/16 04:20:53;;;;;;;;;;;;;;;;;;5092721;28;20331;-91
2021/12/16 04:23:19;;;;;;;;;;;;;;;;;;5110256;28;19982;-90
2021/12/16 04:25:45;;;;;;;;;;;;;;;;;;5091787;28;19923;-91
2021/12/16 04:28:13;;;;;;;;;;;;;;;;;;5092471;28;19924;-93
2021/12/16 04:30:39;;;;;;;;;;;;;;;;;;5101634;28;20230;-92
2021/12/16 04:33:05;;;;;;;;;;;;;;;;;;5093686;28;19974;-92
2021/12/16 04:35:34;;;;;;;;;;;;;;;;;;5126989;28;19930;-91
2021/12/16 04:37:59;;;;;;;;;;;;;;;;;;5092797;28;20026;-92
2021/12/16 04:40:27;;;;;;;;;;;;;;;;;;5110326;28;20015;-90
2021/12/16 04:42:59;;;;;;;;;;;;;;;;;;5107056;28;19930;-91
2021/12/16 04:45:24;;;;;;;;;;;;;;;;;;5077520;28;19985;-92
2021/12/16 04:47:50;;;;;;;;;;;;;;;;;;5090472;28;20377;-91
2021/12/16 04:50:16;;;;;;;;;;;;;;;;;;5075576;28;20045;-92
2021/12/16 04:52:42;;;;;;;;;;;;;;;;;;5079884;28;20285;-91
2021/12/16 04:55:08;;;;;;;;;;;;;;;;;;5089143;28;19978;-91
2021/12/16 04:57:34;;;;;;;;;;;;;;;;;;5075828;28;20059;-92
2021/12/16 05:00:00;;;;;;;;;;;;;;;;;;5081685;28;19924;-92
2021/12/16 05:02:26;;;;;;;;;;;;;;;;;;5075727;28;20313;-91
2021/12/16 05:04:52;;;;;;;;;;;;;;;;;;5074848;28;19927;-92
2021/12/16 05:07:17;;;;;;;;;;;;;;;;;;5083228;28;20448;-92
2021/12/16 05:10:03;;;;;;;;;;;;;;;;;;5088005;28;19932;-92
2021/12/16 05:12:32;;;;;;;;;;;;;;;;;;5080545;28;19928;-92
2021/12/16 05:14:58;;;;;;;;;;;;;;;;;;5089468;28;19927;-92
2021/12/16 05:17:33;;;;;;;;;;;;;;;;;;5075507;28;20382;-91
2021/12/16 05:20:03;;;;;;;;;;;;;;;;;;5075711;28;19928;-91
2021/12/16 05:25:25;;;;;;;;;;;;;;;;;;5097257;28;20404;-92
2021/12/16 05:27:51;;;;;;;;;;;;;;;;;;5087514;28;19924;-92
2021/12/16 05:30:17;;;;;;;;;;;;;;;;;;5075404;28;19983;-93
2021/12/16 05:32:45;;;;;;;;;;;;;;;;;;5075308;28;19924;-91
2021/12/16 05:35:11;;;;;;;;;;;;;;;;;;5078831;28;19924;-91
2021/12/16 05:37:37;;;;;;;;;;;;;;;;;;5074667;28;19931;-91
2021/12/16 05:40:03;;;;;;;;;;;;;;;;;;5084855;28;19924;-92
2021/12/16 05:42:29;;;;;;;;;;;;;;;;;;5085813;28;19935;-92
2021/12/16 05:44:55;;;;;;;;;;;;;;;;;;5091839;28;20523;-92
2021/12/16 05:47:21;;;;;;;;;;;;;;;;;;5096350;27;19923;-92
2021/12/16 05:49:47;;;;;;;;;;;;;;;;;;5115039;27;20018;-92
2021/12/16 05:52:12;;;;;;;;;;;;;;;;;;5100437;28;19924;-91
2021/12/16 05:54:38;;;;;;;;;;;;;;;;;;5097452;27;20292;-92
2021/12/16 05:57:04;;;;;;;;;;;;;;;;;;5114905;27;20024;-92
2021/12/16 05:59:30;;;;;;;;;;;;;;;;;;5112970;27;20323;-91
2021/12/16 06:01:56;;;;;;;;;;;;;;;;;;5100953;28;19923;-90
2021/12/16 06:04:22;;;;;;;;;;;;;;;;;;5109625;28;19924;-91
2021/12/16 06:06:48;;;;;;;;;;;;;;;;;;5104535;28;19992;-91
2021/12/16 06:09:14;;;;;;;;;;;;;;;;;;5105802;28;19923;-91
2021/12/16 06:11:43;;;;;;;;;;;;;;;;;;5114001;27;19938;-92
2021/12/16 06:27:37;;;;;;;;;;;;;;;;;;5121872;27;19928;-93
2021/12/16 06:30:02;;;;;;;;;;;;;;;;;;5100102;27;20446;-93
2021/12/16 06:32:28;;;;;;;;;;;;;;;;;;5105276;27;19927;-92
2021/12/16 06:34:54;;;;;;;;;;;;;;;;;;5103460;28;19924;-91
2021/12/16 06:37:20;;;;;;;;;;;;;;;;;;5097721;28;19923;-94
2021/12/16 06:39:46;;;;;;;;;;;;;;;;;;5098684;28;20434;-93
2021/12/16 06:42:12;;;;;;;;;;;;;;;;;;5100589;27;20379;-94
2021/12/16 06:44:47;;;;;;;;;;;;;;;;;;5107335;27;20046;-93
2021/12/16 06:47:19;;;;;;;;;;;;;;;;;;5098753;27;19935;-94
2021/12/16 06:49:47;;;;;;;;;;;;;;;;;;5105179;28;20012;-93
2021/12/16 06:52:16;;;;;;;;;;;;;;;;;;5105487;27;19923;-94
2021/12/16 06:57:39;;;;;;;;;;;;;;;;;;5115728;27;19973;-94
2021/12/16 07:00:16;;;;;;;;;;;;;;;;;;5100693;28;19931;-92
2021/12/16 07:02:50;;;;;;;;;;;;;;;;;;5105024;27;19930;-93
2021/12/16 07:05:16;;;;;;;;;;;;;;;;;;5100283;27;19924;-96
2021/12/16 07:07:41;;;;;;;;;;;;;;;;;;5100837;28;20413;-92
2021/12/16 07:10:07;;;;;;;;;;;;;;;;;;5097753;27;19928;-92
2021/12/16 07:12:38;;;;;;;;;;;;;;;;;;5110752;27;19998;-92
2021/12/16 07:15:04;;;;;;;;;;;;;;;;;;5107991;27;20291;-90
2021/12/16 07:17:30;;;;;;;;;;;;;;;;;;5110012;28;19927;-91
2021/12/16 07:19:55;;;;;;;;;;;;;;;;;;5098536;28;19924;-90
2021/12/16 07:22:21;;;;;;;;;;;;;;;;;;5095603;28;20304;-91
2021/12/16 07:24:47;;;;;;;;;;;;;;;;;;5098859;27;20032;-91
2021/12/16 07:27:13;;;;;;;;;;;;;;;;;;5098611;28;19924;-92
2021/12/16 07:29:39;;;;;;;;;;;;;;;;;;5093973;28;19928;-91
2021/12/16 07:32:05;;;;;;;;;;;;;;;;;;5112557;27;19976;-91
2021/12/16 07:34:31;;;;;;;;;;;;;;;;;;5109132;27;19944;-94
2021/12/16 07:36:59;;;;;;;;;;;;;;;;;;5106853;27;19931;-93
2021/12/16 07:39:29;;;;;;;;;;;;;;;;;;5097647;28;19923;-93
2021/12/16 07:41:56;;;;;;;;;;;;;;;;;;5093023;28;19957;-93
2021/12/16 07:44:21;;;;;;;;;;;;;;;;;;5088708;28;20415;-93
2021/12/16 07:46:47;;;;;;;;;;;;;;;;;;5078644;28;19924;-93
2021/12/16 07:49:13;;;;;;;;;;;;;;;;;;5072944;28;20023;-94
2021/12/16 07:51:39;;;;;;;;;;;;;;;;;;5082010;28;19928;-93
2021/12/16 07:54:05;;;;;;;;;;;;;;;;;;5089148;28;20390;-94
2021/12/16 07:56:31;;;;;;;;;;;;;;;;;;5089387;28;19924;-94
2021/12/16 07:58:57;;;;;;;;;;;;;;;;;;5089450;28;19946;-94
2021/12/16 08:01:23;;;;;;;;;;;;;;;;;;5086161;28;19931;-95
2021/12/16 08:03:49;;;;;;;;;;;;;;;;;;5072678;28;19956;-94
2021/12/16 08:06:18;;;;;;;;;;;;;;;;;;5073047;28;19928;-94
2021/12/16 08:08:44;;;;;;;;;;;;;;;;;;5074542;28;19967;-94
2021/12/16 08:11:10;;;;;;;;;;;;;;;;;;5073085;28;19924;-94
2021/12/16 08:13:36;;;;;;;;;;;;;;;;;;5072740;28;20039;-95
2021/12/16 08:16:02;;;;;;;;;;;;;;;;;;5072396;28;19974;-95
2021/12/16 08:18:28;;;;;;;;;;;;;;;;;;5072385;28;19981;-95
2021/12/16 08:20:54;;;;;;;;;;;;;;;;;;5072681;28;19967;-94
2021/12/16 08:23:19;;;;;;;;;;;;;;;;;;5076625;28;20453;-96
2021/12/16 08:25:45;;;;;;;;;;;;;;;;;;5079015;28;19924;-93
2021/12/16 08:28:11;;;;;;;;;;;;;;;;;;5076350;28;19924;-95
2021/12/16 08:30:37;;;;;;;;;;;;;;;;;;5082220;28;19931;-93
2021/12/16 08:33:07;;;;;;;;;;;;;;;;;;5092906;28;19924;-92
2021/12/16 08:35:33;;;;;;;;;;;;;;;;;;5081041;28;19946;-95
2021/12/16 08:37:59;;;;;;;;;;;;;;;;;;5088594;28;20385;-93
2021/12/16 08:40:25;;;;;;;;;;;;;;;;;;5089371;28;19924;-94
2021/12/16 08:42:51;;;;;;;;;;;;;;;;;;5079241;28;19977;-95
2021/12/16 08:45:17;;;;;;;;;;;;;;;;;;5091167;28;20328;-93
2021/12/16 08:47:43;;;;;;;;;;;;;;;;;;5105061;28;19924;-94
2021/12/16 08:50:09;;;;;;;;;;;;;;;;;;5095601;28;19970;-90
2021/12/16 08:52:34;;;;;;;;;;;;;;;;;;5107400;27;19928;-91
2021/12/16 08:55:00;;;;;;;;;;;;;;;;;;5116802;27;20439;-91
2021/12/16 08:57:26;;;;;;;;;;;;;;;;;;5115034;27;19931;-90
2021/12/16 08:59:52;;;;;;;;;;;;;;;;;;5116136;27;19928;-91
2021/12/16 09:02:19;;;;;;;;;;;;;;;;;;5114088;28;19924;-96
2021/12/16 09:04:48;;;;;;;;;;;;;;;;;;5119507;28;19924;-96
2021/12/16 09:07:14;;;;;;;;;;;;;;;;;;5116735;28;19924;-95
2021/12/16 09:09:40;;;;;;;;;;;;;;;;;;5118040;28;19920;-96
2021/12/16 09:14:32;;;;;;;;;;;;;;;;;;5125766;28;19924;-96
2021/12/16 09:16:58;;;;;;;;;;;;;;;;;;5104366;28;19931;-95
2021/12/16 09:19:24;;;;;;;;;;;;;;;;;;5123075;27;19923;-96
2021/12/16 09:21:50;;;;;;;;;;;;;;;;;;5133640;27;19927;-96
2021/12/16 09:24:16;;;;;;;;;;;;;;;;;;5128082;27;19931;-96
2021/12/16 09:26:42;;;;;;;;;;;;;;;;;;5132267;27;20005;-96
2021/12/16 09:29:22;;;;;;;;;;;;;;;;;;5141690;27;19907;-96
2021/12/16 09:31:48;;;;;;;;;;;;;;;;;;5135654;27;19923;-96
2021/12/16 09:34:14;;;;;;;;;;;;;;;;;;5137822;27;19946;-96
2021/12/16 09:36:40;;;;;;;;;;;;;;;;;;5127583;27;19924;-95
2021/12/16 09:39:06;;;;;;;;;;;;;;;;;;5121863;27;20021;-96
2021/12/16 09:41:32;;;;;;;;;;;;;;;;;;5114202;28;19923;-96
2021/12/16 09:43:59;;;;;;;;;;;;;;;;;;5102617;28;19930;-96
2021/12/16 09:46:25;;;;;;;;;;;;;;;;;;5115654;28;19924;-96
2021/12/16 09:48:51;;;;;;;;;;;;;;;;;;5122984;28;19931;-96
2021/12/16 09:51:21;;;;;;;;;;;;;;;;;;5126089;28;19924;-96
2021/12/16 09:53:47;;;;;;;;;;;;;;;;;;5117927;28;19924;-96
2021/12/16 09:56:13;;;;;;;;;;;;;;;;;;5117014;28;20377;-96
2021/12/16 09:58:38;;;;;;;;;;;;;;;;;;5115724;28;19924;-96
2021/12/16 10:01:04;;;;;;;;;;;;;;;;;;5109522;28;19947;-96
2021/12/16 10:03:30;;;;;;;;;;;;;;;;;;5102005;27;19924;-96
2021/12/16 10:05:56;;;;;;;;;;;;;;;;;;5118620;27;19968;-96
2021/12/16 10:08:22;;;;;;;;;;;;;;;;;;5121856;27;20445;-96
2021/12/16 10:10:48;;;;;;;;;;;;;;;;;;5120647;27;19943;-96
2021/12/16 10:13:21;;;;;;;;;;;;;;;;;;5120854;27;19987;-96
2021/12/16 10:18:14;;;;;;;;;;;;;;;;;;5121122;27;19923;-96
2021/12/16 10:20:40;;;;;;;;;;;;;;;;;;5112629;28;19935;-96
2021/12/16 10:23:06;;;;;;;;;;;;;;;;;;5109350;28;19986;-96
2021/12/16 10:25:35;;;;;;;;;;;;;;;;;;5099147;28;19930;-96
2021/12/16 10:28:01;;;;;;;;;;;;;;;;;;5113346;28;19983;-96
2021/12/16 10:30:27;;;;;;;;;;;;;;;;;;5112262;28;19928;-96
2021/12/16 10:32:54;;;;;;;;;;;;;;;;;;5097168;28;19975;-96
2021/12/16 10:35:21;;;;;;;;;;;;;;;;;;5101185;28;19935;-96
2021/12/16 10:37:47;;;;;;;;;;;;;;;;;;5126458;28;19961;-96
2021/12/16 10:40:19;;;;;;;;;;;;;;;;;;5151651;27;19946;-96
2021/12/16 10:42:45;;;;;;;;;;;;;;;;;;5135132;28;19907;-96
2021/12/16 10:45:10;;;;;;;;;;;;;;;;;;5133801;28;20022;-96
2021/12/16 10:47:37;;;;;;;;;;;;;;;;;;5134816;28;20005;-96
2021/12/16 10:50:16;;;;;;;;;;;;;;;;;;5135902;28;19945;-96
2021/12/16 11:00:32;;;;;;;;;;;;;;;;;;5514802;23;19926;-95
2021/12/16 11:02:58;;;;;;;;;;;;;;;;;;5035257;28;19909;-94
2021/12/16 11:05:24;;;;;;;;;;;;;;;;;;5026238;28;19921;-96
2021/12/16 11:07:50;;;;;;;;;;;;;;;;;;5059287;28;19983;-88
2021/12/16 11:10:19;;;;;;;;;;;;;;;;;;5042973;28;19909;-85
2021/12/16 11:12:45;;;;;;;;;;;;;;;;;;5042590;28;19929;-84
2021/12/16 11:15:11;;;;;;;;;;;;;;;;;;5042548;28;19971;-91
2021/12/16 11:17:37;;;;;;;;;;;;;;;;;;5042721;28;19932;-86
2021/12/16 11:20:03;;;;;;;;;;;;;;;;;;5059313;28;19909;-88
2021/12/16 11:22:29;;;;;;;;;;;;;;;;;;5042579;28;19921;-89
2021/12/16 11:24:55;;;;;;;;;;;;;;;;;;5025927;28;19930;-96
2021/12/16 11:27:21;;;;;;;;;;;;;;;;;;5036026;28;19925;-96
2021/12/16 11:29:47;;;;;;;;;;;;;;;;;;5036174;28;19916;-96
2021/12/16 11:32:12;;;;;;;;;;;;;;;;;;5022006;28;19964;-89
2021/12/16 11:34:40;;;;;;;;;;;;;;;;;;5022066;28;19930;-87
2021/12/16 11:37:06;;;;;;;;;;;;;;;;;;5020610;28;19916;-87
2021/12/16 11:39:31;;;;;;;;;;;;;;;;;;5029095;28;19910;-94
2021/12/16 11:42:00;;;;;;;;;;;;;;;;;;5010975;28;19925;-96
2021/12/16 11:44:26;;;;;;;;;;;;;;;;;;5002254;28;19932;-92
2021/12/16 11:46:51;;;;;;;;;;;;;;;;;;5016232;28;19917;-93
2021/12/16 11:49:21;;;;;;;;;;;;;;;;;;5021498;28;19910;-95
2021/12/16 11:51:47;;;;;;;;;;;;;;;;;;5036753;28;19925;-95
2021/12/16 11:54:15;;;;;;;;;;;;;;;;;;5038518;28;19910;-84
2021/12/16 11:56:41;;;;;;;;;;;;;;;;;;5022069;28;19978;-86
2021/12/16 11:59:07;;;;;;;;;;;;;;;;;;5012358;28;19925;-95
2021/12/16 12:01:33;;;;;;;;;;;;;;;;;;4981273;28;19926;-95
2021/12/16 12:03:59;;;;;;;;;;;;;;;;;;4977643;28;19930;-95
2021/12/16 12:06:25;;;;;;;;;;;;;;;;;;4994505;28;19932;-94
2021/12/16 12:08:51;;;;;;;;;;;;;;;;;;4976211;28;20372;-95
2021/12/16 12:11:16;;;;;;;;;;;;;;;;;;4974498;28;20005;-93
2021/12/16 12:13:42;;;;;;;;;;;;;;;;;;4974320;28;19926;-95
2021/12/16 12:16:08;;;;;;;;;;;;;;;;;;4974027;28;19929;-93
2021/12/16 12:18:34;;;;;;;;;;;;;;;;;;4974491;28;19926;-93
2021/12/16 12:21:00;;;;;;;;;;;;;;;;;;4974402;28;20375;-94
2021/12/16 12:23:26;;;;;;;;;;;;;;;;;;4980640;28;20024;-95
2021/12/16 12:25:52;;;;;;;;;;;;;;;;;;4989707;28;19937;-94
2021/12/16 12:28:18;;;;;;;;;;;;;;;;;;4993186;28;20404;-95
2021/12/16 12:30:45;;;;;;;;;;;;;;;;;;4993019;28;20012;-94
2021/12/16 12:33:11;;;;;;;;;;;;;;;;;;4993755;28;19932;-95
2021/12/16 12:35:36;;;;;;;;;;;;;;;;;;4980926;28;20303;-96
2021/12/16 12:38:02;;;;;;;;;;;;;;;;;;4982829;28;19925;-94
2021/12/16 12:40:28;;;;;;;;;;;;;;;;;;4977080;28;19969;-95
2021/12/16 12:42:54;;;;;;;;;;;;;;;;;;4973564;28;19968;-89
2021/12/16 12:45:20;;;;;;;;;;;;;;;;;;4974117;28;19932;-92
2021/12/16 12:47:46;;;;;;;;;;;;;;;;;;4984573;28;19991;-91
2021/12/16 12:50:12;;;;;;;;;;;;;;;;;;4993079;28;19932;-91
2021/12/16 12:52:38;;;;;;;;;;;;;;;;;;4975316;28;19930;-92
2021/12/16 12:55:04;;;;;;;;;;;;;;;;;;4973532;28;19972;-91
2021/12/16 12:57:30;;;;;;;;;;;;;;;;;;4971172;28;19933;-91
2021/12/16 12:59:55;;;;;;;;;;;;;;;;;;4973425;28;19926;-91
2021/12/16 13:02:23;;;;;;;;;;;;;;;;;;4964699;28;19988;-92
2021/12/16 13:04:49;;;;;;;;;;;;;;;;;;4953826;28;19934;-93
2021/12/16 13:07:15;;;;;;;;;;;;;;;;;;4958048;28;19926;-91
2021/12/16 13:09:41;;;;;;;;;;;;;;;;;;4961964;28;20372;-91
2021/12/16 13:12:07;;;;;;;;;;;;;;;;;;4968443;28;19932;-90
2021/12/16 13:14:40;;;;;;;;;;;;;;;;;;4973882;28;19926;-91
2021/12/16 13:23:28;;;;;;;;;;;;;;;;;;4956466;28;19926;-92
2021/12/16 13:28:01;;;;;;;;;;;;;;;;;;4936926;29;19950;-92
2021/12/16 13:30:29;;;;;;;;;;;;;;;;;;4937099;29;19930;-93
2021/12/16 13:32:55;;;;;;;;;;;;;;;;;;4922616;29;19934;-92
2021/12/16 13:35:32;;;;;;;;;;;;;;;;;;4951466;28;19926;-92
2021/12/16 13:37:58;;;;;;;;;;;;;;;;;;4936275;28;19927;-93
2021/12/16 13:40:24;;;;;;;;;;;;;;;;;;4937996;29;20435;-93
2021/12/16 13:42:54;;;;;;;;;;;;;;;;;;4942435;28;19923;-93
2021/12/16 13:45:24;;;;;;;;;;;;;;;;;;4950552;28;20088;-93
2021/12/16 13:48:16;;;;;;;;;;;;;;;;;;4947523;28;19927;-93
2021/12/16 14:02:04;;;;;;;;;;;;;;;;;;4991676;28;19980;-93
2021/12/16 14:09:43;;;;;;;;;;;;;;;;;;4991225;28;20021;-92
2021/12/16 14:14:50;;;;;;;;;;;;;;;;;;4991133;28;19969;-92
2021/12/16 14:17:28;;;;;;;;;;;;;;;;;;4975139;28;19965;-91
2021/12/16 14:23:05;;;;;;;;;;;;;;;;;;4991663;28;19992;-92
2021/12/16 14:34:50;;;;;;;;;;;;;;;;;;4935712;29;19974;-92
2021/12/16 14:42:07;;;;;;;;;;;;;;;;;;4935582;29;19971;-92
2021/12/16 14:47:09;;;;;;;;;;;;;;;;;;4935175;29;19927;-90
2021/12/16 14:49:35;;;;;;;;;;;;;;;;;;4919645;29;19927;-93
2021/12/16 14:52:01;;;;;;;;;;;;;;;;;;4919513;29;19930;-92
2021/12/16 14:54:27;;;;;;;;;;;;;;;;;;4919628;29;19970;-93
2021/12/16 14:56:53;;;;;;;;;;;;;;;;;;4919264;29;19944;-94
2021/12/16 14:59:19;;;;;;;;;;;;;;;;;;4919058;29;19935;-93
2021/12/16 15:01:45;;;;;;;;;;;;;;;;;;4919281;29;19926;-93
2021/12/16 15:04:12;;;;;;;;;;;;;;;;;;4919213;29;19927;-93
2021/12/16 15:06:47;;;;;;;;;;;;;;;;;;4935086;29;19926;-93
2021/12/16 15:09:27;;;;;;;;;;;;;;;;;;4937363;28;19933;-93
2021/12/16 15:11:59;;;;;;;;;;;;;;;;;;4969867;28;19926;-93
2021/12/16 15:38:18;;;;;;;68.53;20.30;;;8.40;99.90;;;;;;5042937;28;20045;-90
2021/12/16 15:43:21;;;;;;;77.55;21.75;;;8.20;99.90;;;;;;5045703;28;20091;-91
2021/12/16 15:45:51;;;;;;;115.15;23.55;;;8.30;99.90;;;;;;5038752;28;20136;-91
2021/12/16 15:48:22;;;;;;;80.25;21.02;;;8.20;99.90;;;;;;5050804;28;20180;-92
2021/12/16 15:51:04;;;;;;;126.53;65.47;;;8.20;99.90;;;;;;5030124;28;20453;-92
2021/12/16 15:53:36;;;;;;;97.47;24.45;;;8.20;99.90;;;;;;5031205;28;20136;-91
2021/12/16 15:56:08;;;;;;;79.68;26.63;;;8.10;99.90;;;;;;5031713;28;20049;-91
2021/12/16 15:58:40;;;;;;;67.10;26.00;;;8.20;99.90;;;;;;5027521;28;20049;-90
2021/12/16 16:01:14;;;;;;;99.78;27.30;;;8.20;99.90;;;;;;5041021;28;20045;-89
2021/12/16 16:03:40;;;;;;;70.57;23.90;;;8.20;99.90;;;;;;5060985;28;20036;-91
2021/12/16 16:06:08;;;;;;;70.10;25.63;;;8.20;99.90;;;;;;5063376;27;20077;-92
2021/12/16 16:08:39;;;;;;;103.78;23.10;;;8.20;99.90;;;;;;5108654;27;20048;-90
2021/12/16 16:11:19;;;;;;;79.28;23.23;;;8.20;99.90;;;;;;5092721;28;20040;-91
2021/12/16 16:13:52;;;;;;;75.57;22.40;;;8.20;99.90;;;;;;5109351;27;20088;-94
2021/12/16 16:16:22;;;;;;;67.03;22.40;;;8.20;99.90;;;;;;5096026;28;20039;-92
2021/12/16 16:18:56;;;;;;;70.75;24.40;;;8.20;99.90;;;;;;5106424;27;20039;-92
2021/12/16 16:21:32;;;;;;;80.43;29.70;;;8.20;99.90;;;;;;5111898;27;20039;-90
2021/12/16 16:24:03;;;;;;;89.53;28.58;;;8.20;99.90;;;;;;5112835;27;20111;-91
2021/12/16 16:26:29;;;;;;;124.35;29.55;;;8.20;99.90;;;;;;5095677;28;20040;-91
2021/12/16 16:29:06;;;;;;;117.72;41.08;;;8.20;99.90;;;;;;5088708;28;20047;-91
2021/12/16 16:31:33;;;;;;;111.47;27.88;;;8.10;99.90;;;;;;5084101;28;20048;-91
2021/12/16 16:34:01;;;;;;;105.35;21.35;;;8.10;99.90;;;;;;5087133;28;20036;-92
2021/12/16 16:36:29;;;;;;;106.25;22.40;;;8.10;99.90;;;;;;5074811;28;20040;-92
2021/12/16 16:39:03;;;;;;;115.63;39.22;;;8.10;99.90;;;;;;5074628;28;20444;-91
2021/12/16 16:41:32;;;;;;;86.40;19.85;;;8.00;99.90;;;;;;5070221;28;20035;-92
2021/12/16 16:44:07;;;;;;;84.20;19.77;;;8.00;99.90;;;;;;5066357;28;20047;-88
2021/12/16 16:46:56;;;;;;;79.60;19.38;;;8.00;99.90;;;;;;5067800;28;20043;-91
2021/12/16 16:49:31;;;;;;;96.20;21.05;;;8.00;99.90;;;;;;5077911;28;20040;-93
2021/12/16 16:52:01;;;;;;;110.05;26.38;;;7.90;99.90;;;;;;5076499;28;20044;-92
2021/12/16 16:54:26;;;;;;;99.68;21.15;;;7.90;99.90;;;;;;5070402;28;20031;-91
2021/12/16 16:57:13;;;;;;;98.18;21.20;;;7.90;99.90;;;;;;5071893;28;20567;-93
2021/12/16 16:59:45;;;;;;;135.20;24.60;;;7.90;99.90;;;;;;5070070;28;20497;-92
2021/12/16 17:02:22;;;;;;;137.85;24.58;;;7.90;99.90;;;;;;5073116;28;20118;-93
2021/12/16 17:05:01;;;;;;;105.40;25.67;;;7.90;99.90;;;;;;5075345;28;20044;-92
2021/12/16 17:07:36;;;;;;;103.10;23.05;;;7.90;99.90;;;;;;5069615;28;20040;-92
2021/12/16 17:10:03;;;;;;;91.97;22.52;;;7.90;99.90;;;;;;5074931;28;20032;-91
2021/12/16 17:12:35;;;;;;;128.93;22.85;;;7.90;99.90;;;;;;5071991;28;20494;-92
2021/12/16 17:15:20;;;;;;;102.10;22.83;;;7.90;99.90;;;;;;5084546;28;20036;-93
2021/12/16 17:17:46;;;;;;;68.05;21.92;;;8.00;99.90;;;;;;5073872;28;20040;-92
2021/12/16 17:20:15;;;;;;;75.20;21.95;;;8.00;99.90;;;;;;5078219;28;20550;-91
2021/12/16 17:22:48;;;;;;;76.22;21.83;;;8.00;99.90;;;;;;5077741;28;21561;-92
2021/12/16 17:25:16;;;;;;;78.13;22.77;;;8.00;99.90;;;;;;5077127;28;20124;-92
2021/12/16 17:27:45;;;;;;;97.40;23.85;;;8.10;99.90;;;;;;5072711;28;20083;-96
2021/12/16 17:30:24;;;;;;;137.65;45.75;;;8.10;99.90;;;;;;5078210;28;20088;-94
2021/12/16 17:32:52;;;;;;;120.72;39.50;;;8.00;99.90;;;;;;5075917;28;20131;-95
2021/12/16 17:35:25;;;;;;;75.00;23.50;;;8.00;99.90;;;;;;5076768;28;20036;-94
2021/12/16 17:37:59;;;;;;;83.78;23.15;;;8.10;99.90;;;;;;5073545;28;20048;-95
2021/12/16 17:40:29;;;;;;;98.05;23.00;;;8.10;99.90;;;;;;5083719;28;20469;-94
2021/12/16 17:43:02;;;;;;;71.63;22.52;;;8.10;99.90;;;;;;5077093;28;20413;-91
2021/12/16 17:45:40;;;;;;;90.43;25.00;;;8.10;99.90;;;;;;5070014;28;20043;-92
2021/12/16 17:48:11;;;;;;;95.30;35.83;;;8.10;99.90;;;;;;5061810;28;20381;-92
2021/12/16 17:50:46;;;;;;;128.23;41.83;;;8.10;99.90;;;;;;5076352;28;20134;-92
2021/12/16 17:53:13;;;;;;;75.75;22.40;;;8.20;99.90;;;;;;5076214;28;20039;-93
2021/12/16 17:55:45;;;;;;;137.75;28.48;;;8.10;99.90;;;;;;5076087;28;20071;-90
2021/12/16 17:58:15;;;;;;;70.57;23.25;;;8.10;99.90;;;;;;5071236;28;20081;-92
2021/12/16 18:00:48;;;;;;;85.97;23.92;;;8.20;99.90;;;;;;5066100;28;20127;-92
2021/12/16 18:03:25;;;;;;;83.60;24.52;;;8.20;99.90;;;;;;5058021;28;20494;-91
2021/12/16 18:05:54;;;;;;;86.10;24.67;;;8.20;99.90;;;;;;5058880;28;20098;-91
2021/12/16 18:08:35;;;;;;;104.15;25.92;;;8.20;99.90;;;;;;5069783;28;20028;-92
2021/12/16 18:11:20;;;;;;;79.97;23.02;;;8.20;99.90;;;;;;5063445;28;20148;-92
2021/12/16 18:13:51;;;;;;;122.97;26.00;;;8.20;99.90;;;;;;5065421;28;20524;-91
2021/12/16 18:16:41;;;;;;;127.22;24.75;;;8.20;99.90;;;;;;5068284;28;20057;-92
2021/12/16 18:19:12;;;;;;;103.68;25.10;;;8.20;99.90;;;;;;5063030;28;20491;-93
2021/12/16 18:21:40;;;;;;;150.73;27.20;;;8.20;99.90;;;;;;5063139;28;20044;-92
2021/12/16 18:24:06;;;;;;;107.97;26.83;;;8.20;99.90;;;;;;5067905;28;20436;-91
2021/12/16 18:26:36;;;;;;;110.63;26.55;;;8.20;99.90;;;;;;5065197;28;20058;-92
2021/12/16 18:29:04;;;;;;;90.75;24.65;;;8.20;99.90;;;;;;5074348;28;20036;-91
2021/12/16 18:31:31;;;;;;;122.75;26.75;;;8.20;99.90;;;;;;5059848;28;20070;-90
2021/12/16 18:34:16;;;;;;;103.05;25.50;;;8.20;99.90;;;;;;5075550;28;20074;-89
2021/12/16 18:36:43;;;;;;;66.43;22.08;;;8.20;99.90;;;;;;5093044;28;20485;-90
2021/12/16 18:39:24;;;;;;;60.40;21.65;;;8.20;99.90;;;;;;5076307;28;20046;-90
2021/12/16 18:41:51;;;;;;;87.60;25.30;;;8.20;99.90;;;;;;5075845;28;20047;-90
2021/12/16 18:44:40;;;;;;;88.13;25.05;;;8.20;99.90;;;;;;5075992;28;20537;-90
2021/12/16 18:47:25;;;;;;;125.15;36.00;;;8.20;99.90;;;;;;5061616;28;20044;-90
2021/12/16 18:49:56;;;;;;;128.75;29.77;;;8.20;99.90;;;;;;5073959;28;20472;-89
2021/12/16 18:52:33;;;;;;;96.40;30.45;;;8.20;99.90;;;;;;5075815;28;20076;-90
2021/12/16 18:55:00;;;;;;;82.07;25.90;;;8.20;99.90;;;;;;5075709;28;20047;-90
2021/12/16 18:57:25;;;;;;;90.75;26.83;;;8.20;99.90;;;;;;5076419;28;20573;-90
2021/12/16 18:59:52;;;;;;;81.43;26.50;;;8.30;99.90;;;;;;5075300;28;20039;-91
2021/12/16 19:02:26;;;;;;;98.15;27.02;;;8.30;99.90;;;;;;5073189;28;20035;-91
2021/12/16 19:04:55;;;;;;;150.32;28.42;;;8.30;99.90;;;;;;5067950;28;20419;-90
2021/12/16 19:07:27;;;;;;;124.53;28.70;;;8.30;99.90;;;;;;5072608;28;20043;-90
2021/12/16 19:09:56;;;;;;;184.00;31.05;;;8.30;99.90;;;;;;5073314;28;20051;-90
2021/12/16 19:12:27;;;;;;;129.77;27.63;;;8.20;99.90;;;;;;5073449;28;20051;-90
2021/12/16 19:15:07;;;;;;;196.02;30.40;;;8.20;99.90;;;;;;5061436;28;20135;-90
2021/12/16 19:17:34;;;;;;;146.90;27.77;;;8.20;99.90;;;;;;5068066;28;20058;-90
2021/12/16 19:20:02;;;;;;;108.20;26.58;;;8.20;99.90;;;;;;5062824;28;20040;-90
2021/12/16 19:22:28;;;;;;;117.82;25.45;;;8.20;99.90;;;;;;5073711;28;20328;-90
2021/12/16 19:24:54;;;;;;;132.13;25.23;;;8.10;99.90;;;;;;5065651;28;20036;-90